Time;durP1;ratioP1;P1;durP2;ratioP2;P2;SDS_P1;SDS_P2;PMS_P1;PMS_P2;Temp;Humidity;BMP_temperature;BMP_pressure;BME280_temperature;BME280_humidity;BME280_pressure;Samples;Min_cycle;Max_cycle;Signal;HPM_P1;HPM_P2
2022/11/07 00:02:32;;;;;;;4.57;4.10;;;;;;;11.48;53.39;99664.13;10412384;28;20888;-73
2022/11/07 00:07:34;;;;;;;5.03;4.20;;;;;;;11.59;51.76;99675.16;10430305;28;20349;-73
2022/11/07 00:12:36;;;;;;;5.07;4.17;;;;;;;11.38;53.14;99693.91;10440624;28;20243;-71
2022/11/07 00:17:38;;;;;;;4.03;3.63;;;;;;;11.03;53.63;99720.53;10437411;28;20235;-71
2022/11/07 00:22:39;;;;;;;4.40;3.60;;;;;;;11.84;52.60;99665.88;10435957;28;20244;-74
2022/11/07 00:27:41;;;;;;;4.10;3.70;;;;;;;11.85;52.61;99664.84;10428623;28;20235;-74
2022/11/07 00:32:42;;;;;;;5.23;3.93;;;;;;;11.76;53.29;99656.97;10407556;28;20244;-72
2022/11/07 00:37:44;;;;;;;4.10;3.70;;;;;;;10.99;54.24;99701.34;10420784;28;20239;-74
2022/11/07 00:42:46;;;;;;;4.23;3.83;;;;;;;12.28;51.82;99662.00;10442938;28;20707;-74
2022/11/07 00:47:48;;;;;;;5.63;3.23;;;;;;;12.21;52.36;99674.56;10419392;28;20657;-73
2022/11/07 00:52:49;;;;;;;4.23;3.60;;;;;;;11.99;52.02;99699.59;10434307;28;20236;-73
2022/11/07 00:57:51;;;;;;;3.93;3.30;;;;;;;12.68;51.99;99664.88;10411287;28;20243;-75
2022/11/07 01:08:14;;;;;;;3.80;3.40;;;;;;;13.48;49.79;99691.97;10429291;28;20243;-73
2022/11/07 01:13:16;;;;;;;3.80;3.50;;;;;;;13.56;50.31;99697.13;10420905;28;20232;-73
2022/11/07 01:18:18;;;;;;;3.63;3.33;;;;;;;13.70;49.66;99702.50;10428647;28;20229;-74
2022/11/07 01:23:21;;;;;;;7.90;3.93;;;;;;;13.75;49.30;99710.75;10431797;28;20232;-73
2022/11/07 01:28:23;;;;;;;3.77;2.77;;;;;;;12.56;51.39;99747.84;10426578;28;20236;-72
2022/11/07 01:33:24;;;;;;;3.63;3.03;;;;;;;13.77;49.87;99697.97;10421835;28;21012;-71
2022/11/07 01:38:26;;;;;;;4.23;3.07;;;;;;;12.50;52.15;99736.06;10427750;28;20262;-72
2022/11/07 01:43:54;;;;;;;5.00;3.00;;;;;;;13.31;50.90;99690.69;10440500;28;20243;-73
2022/11/07 01:49:17;;;;;;;4.83;3.10;;;;;;;13.10;51.43;99722.03;10432067;28;20305;-70
2022/11/07 01:54:23;;;;;;;6.10;3.10;;;;;;;13.93;49.96;99691.31;10416363;28;20241;-71
2022/11/07 01:59:28;;;;;;;3.10;2.80;;;;;;;13.79;50.37;99707.47;10415089;28;20239;-72
2022/11/07 02:04:30;;;;;;;3.10;2.90;;;;;;;13.41;50.88;99716.16;10431443;28;20232;-71
2022/11/07 02:09:32;;;;;;;4.90;3.57;;;;;;;13.54;50.68;99684.94;10439055;28;20240;-71
2022/11/07 02:14:34;;;;;;;4.80;3.10;;;;;;;13.20;51.25;99694.78;10432577;28;20293;-71
2022/11/07 02:19:50;;;;;;;3.40;3.10;;;;;;;13.64;50.60;99686.16;10433214;28;20734;-74
2022/11/07 02:24:56;;;;;;;3.50;3.20;;;;;;;13.50;50.55;99691.72;10409799;28;20652;-75
2022/11/07 02:30:02;;;;;;;4.40;3.67;;;;;;;13.28;50.87;99697.31;10425227;28;20233;-72
2022/11/07 02:35:25;;;;;;;3.60;3.30;;;;;;;12.93;51.93;99706.28;10415018;28;20649;-74
2022/11/07 02:40:30;;;;;;;3.20;2.90;;;;;;;12.88;52.19;99711.44;10403743;28;20646;-71
2022/11/07 02:45:35;;;;;;;4.23;3.37;;;;;;;12.89;52.41;99718.47;10428611;28;20244;-75
2022/11/07 02:50:38;;;;;;;5.03;2.80;;;;;;;13.39;50.87;99694.00;10432067;28;20235;-71
2022/11/07 02:55:40;;;;;;;3.10;2.80;;;;;;;13.13;51.23;99708.19;10429288;28;20232;-74
2022/11/07 03:00:42;;;;;;;3.30;3.00;;;;;;;13.93;50.11;99676.00;10436557;28;20313;-74
2022/11/07 03:05:43;;;;;;;3.80;2.93;;;;;;;13.18;50.90;99721.03;10432195;22;20228;-32
2022/11/07 03:10:45;;;;;;;4.73;3.30;;;;;;;13.23;51.16;99727.44;10475142;28;20257;-32
2022/11/07 03:15:47;;;;;;;3.90;3.50;;;;;;;13.61;50.20;99696.50;10465781;28;20228;-35
2022/11/07 03:20:48;;;;;;;4.53;3.53;;;;;;;13.18;52.15;99700.38;10453582;28;20317;-44
2022/11/07 03:25:50;;;;;;;3.93;3.03;;;;;;;12.85;52.96;99690.34;10436313;28;20234;-43
2022/11/07 03:30:51;;;;;;;5.20;3.50;;;;;;;;;;10431097;28;20585;-44
2022/11/07 03:35:53;;;;;;;3.70;3.10;;;;;;;11.69;55.46;99711.53;10439621;28;20456;-44
2022/11/07 03:40:55;;;;;;;3.73;3.40;;;;;;;12.28;52.99;99691.50;10443881;28;20235;-44
2022/11/07 03:45:57;;;;;;;3.93;3.03;;;;;;;12.08;53.94;99720.88;10429310;28;20242;-43
2022/11/07 03:50:58;;;;;;;4.57;3.13;;;;;;;12.02;55.54;99642.06;10448633;28;20236;-43
2022/11/07 03:56:06;;;;;;;4.40;4.00;;;;;;;11.12;56.15;99721.25;10441942;28;20228;-43
2022/11/07 04:01:09;;;;;;;4.60;3.27;;;;;;;12.08;53.99;99683.34;10468716;28;20235;-44
2022/11/07 04:06:11;;;;;;;4.60;3.40;;;;;;;11.77;54.57;99727.47;10449207;28;20242;-44
2022/11/07 04:17:17;;;;;;;4.90;3.57;;;;;;;12.10;54.00;99716.19;10421420;28;20231;-43
2022/11/07 04:21:54;;;;;;;3.93;3.53;;;;;;;12.97;51.26;99701.31;10454221;28;20227;-44
2022/11/07 04:32:16;;;;;;;4.67;3.70;;;;;;;13.36;51.12;99736.59;10442949;28;20218;-44
2022/11/07 04:37:18;;;;;;;4.47;3.23;;;;;;;12.72;52.59;99795.00;10461271;28;20795;-43
2022/11/07 04:42:19;;;;;;;4.20;3.63;;;;;;;12.18;53.60;99780.38;10469877;28;20673;-43
2022/11/07 04:47:21;;;;;;;4.50;3.33;;;;;;;13.07;52.93;99692.88;10436836;28;20240;-44
2022/11/07 04:52:47;;;;;;;4.27;3.27;;;;;;;12.48;54.42;99700.53;10436439;28;20873;-43
2022/11/07 04:58:12;;;;;;;4.50;3.13;;;;;;;11.09;55.67;99751.94;10467761;28;20714;-43
2022/11/07 05:03:38;;;;;;;4.00;3.17;;;;;;;11.93;54.18;99743.28;10448238;28;20698;-43
2022/11/07 05:09:04;;;;;;;5.37;3.40;;;;;;;12.38;53.27;99713.44;10445662;28;20382;-43
2022/11/07 05:14:30;;;;;;;3.70;3.07;;;;;;;12.85;53.65;99674.22;10462530;28;20891;-43
2022/11/07 05:19:56;;;;;;;3.80;3.40;;;;;;;11.83;54.39;99753.53;10449149;28;20245;-43
2022/11/07 05:26:12;;;;;;;4.03;3.03;;;;;;;12.04;54.30;99743.78;10426707;28;20322;-44
2022/11/07 05:32:28;;;;;;;4.33;3.10;;;;;;;11.95;54.77;99751.97;10451370;28;20230;-43
2022/11/07 05:38:44;;;;;;;3.13;2.60;;;;;;;11.59;55.74;99774.31;10439804;28;20202;-43
2022/11/07 05:45:00;;;;;;;3.97;3.10;;;;;;;12.27;53.82;99730.13;10461787;28;20262;-44
2022/11/07 05:51:16;;;;;;;4.27;3.10;;;;;;;13.00;53.08;99690.19;10444150;28;20329;-43
2022/11/07 05:57:32;;;;;;;4.77;3.10;;;;;;;11.92;55.07;99764.94;10469191;28;20262;-43
2022/11/07 06:03:47;;;;;;;7.60;3.40;;;;;;;11.22;56.20;99797.63;10438298;28;20720;-43
2022/11/07 06:10:02;;;;;;;4.43;3.00;;;;;;;11.59;56.27;99782.34;10467577;28;20719;-44
2022/11/07 06:16:17;;;;;;;4.47;2.60;;;;;;;11.96;54.82;99750.94;10432155;28;20242;-40
2022/11/07 06:22:32;;;;;;;7.27;3.60;;;;;;;12.66;53.97;99723.34;10460328;28;20259;-43
2022/11/07 06:28:47;;;;;;;5.57;2.70;;;;;;;12.23;55.72;99720.78;10446672;28;20292;-43
2022/11/07 06:35:03;;;;;;;4.60;2.70;;;;;;;11.91;56.31;99744.50;10455411;28;20227;-43
2022/11/07 06:41:18;;;;;;;5.03;3.00;;;;;;;11.85;55.07;99775.59;10451461;28;20235;-43
2022/11/07 06:47:34;;;;;;;4.83;3.23;;;;;;;12.21;54.71;99779.19;10471589;28;20231;-43
2022/11/07 06:53:50;;;;;;;4.03;3.37;;;;;;;11.76;55.58;99785.63;10470211;28;20829;-43
2022/11/07 07:00:06;;;;;;;3.97;3.27;;;;;;;13.30;52.99;99730.19;10412988;28;20701;-44
2022/11/07 07:06:22;;;;;;;3.63;3.00;;;;;;;12.19;55.49;99761.41;10452923;28;20234;-44
2022/11/07 07:12:39;;;;;;;4.23;2.70;;;;;;;11.41;56.18;99839.03;10475362;28;20227;-44
2022/11/07 07:18:54;;;;;;;4.27;2.77;;;;;;;11.96;55.13;99790.31;10464086;28;20317;-44
2022/11/07 07:25:10;;;;;;;4.13;2.77;;;;;;;12.70;53.44;99779.13;10457545;28;20255;-44
2022/11/07 07:31:27;;;;;;;3.90;2.67;;;;;;;13.23;52.21;99783.06;10456237;28;20238;-44
2022/11/07 07:37:42;;;;;;;5.03;3.10;;;;;;;13.80;51.72;99783.59;10441820;28;20267;-44
2022/11/07 07:43:58;;;;;;;5.57;3.70;;;;;;;13.62;51.93;99785.03;10451212;28;20234;-44
2022/11/07 07:50:15;;;;;;;7.13;3.17;;;;;;;13.14;52.75;99821.84;10421618;28;20224;-44
2022/11/07 07:56:30;;;;;;;6.13;3.00;;;;;;;13.28;52.25;99815.56;10471415;28;20219;-44
2022/11/07 08:02:46;;;;;;;6.47;3.67;;;;;;;13.31;52.32;99823.19;10440862;28;20228;-44
2022/11/07 08:09:02;;;;;;;7.10;3.20;;;;;;;14.16;50.93;99799.34;10452833;28;20222;-44
2022/11/07 08:15:17;;;;;;;5.20;2.60;;;;;;;12.70;53.66;99851.59;10462435;28;20318;-44
2022/11/07 08:21:32;;;;;;;7.60;3.00;;;;;;;13.82;51.77;99784.22;10440988;28;20561;-44
2022/11/07 08:27:47;;;;;;;3.83;2.67;;;;;;;13.69;51.63;99811.09;10450306;28;20772;-44
2022/11/07 08:34:02;;;;;;;4.83;2.60;;;;;;;13.53;52.32;99820.34;10450213;28;20224;-44
2022/11/07 08:40:17;;;;;;;4.40;2.80;;;;;;;14.51;49.78;99806.34;10465360;28;20235;-44
2022/11/07 08:46:32;;;;;;;7.53;3.07;;;;;;;14.16;50.10;99817.38;10478225;28;20227;-44
2022/11/07 08:52:48;;;;;;;4.23;2.50;;;;;;;13.78;51.10;99834.88;10460963;28;20230;-44
2022/11/07 08:59:05;;;;;;;7.07;3.30;;;;;;;14.58;49.71;99812.56;10435293;28;20199;-43
2022/11/07 09:05:20;;;;;;;7.57;3.47;;;;;;;14.69;49.69;99811.91;10433426;28;20232;-45
2022/11/07 09:11:36;;;;;;;6.93;2.60;;;;;;;15.08;48.50;99815.56;10435782;28;20239;-45
2022/11/07 09:17:53;;;;;;;5.90;2.80;;;;;;;15.08;49.05;99829.03;10436777;28;20235;-42
2022/11/07 09:24:09;;;;;;;8.13;4.03;;;;;;;15.27;48.89;99815.69;10436412;28;20701;-40
2022/11/07 09:30:25;;;;;;;6.83;4.10;;;;;;;15.67;48.13;99807.38;10435219;28;20229;-41
2022/11/07 09:36:41;;;;;;;5.30;2.50;;;;;;;15.31;48.84;99814.19;10436576;28;20228;-41
2022/11/07 09:42:57;;;;;;;8.90;3.23;;;;;;;15.51;48.96;99822.19;10430825;28;20228;-40
2022/11/07 19:12:15;;;;;;;14.33;5.77;;;;;;;13.62;53.14;99746.56;10517694;28;20248;-70
2022/11/07 19:17:16;;;;;;;7.57;5.70;;;;;;;12.70;54.92;99778.28;10518148;28;20755;-68
2022/11/07 19:22:18;;;;;;;6.53;4.90;;;;;;;13.77;53.29;99685.34;10509637;28;20234;-68
2022/11/07 19:27:20;;;;;;;7.63;5.60;;;;;;;13.88;52.76;99704.56;10518991;28;20592;-69
2022/11/07 19:32:21;;;;;;;11.70;5.57;;;;;;;14.47;51.26;99675.91;10517657;28;20249;-68
2022/11/07 19:37:23;;;;;;;9.30;5.30;;;;;;;15.20;50.25;99680.09;10513418;28;20706;-69
2022/11/07 19:42:27;;;;;;;10.53;5.60;;;;;;;14.31;51.45;99731.84;10514864;28;20291;-69
2022/11/07 19:47:29;;;;;;;9.00;5.50;;;;;;;13.10;54.01;99799.94;10514536;28;20242;-68
2022/11/07 19:52:30;;;;;;;10.27;6.30;;;;;;;12.58;55.32;99794.09;10528174;28;20247;-69
2022/11/07 19:57:32;;;;;;;12.60;6.57;;;;;;;13.47;53.42;99742.19;10524672;28;20234;-71
2022/11/07 20:02:34;;;;;;;9.20;5.70;;;;;;;13.62;52.88;99733.13;10524351;28;20230;-67
2022/11/07 20:07:44;;;;;;;9.57;5.13;;;;;;;14.98;50.48;99691.22;10522063;28;20241;-66
2022/11/07 20:12:48;;;;;;;7.37;4.73;;;;;;;15.41;49.40;99689.72;10524237;28;20238;-69
2022/11/07 20:17:49;;;;;;;10.87;4.80;;;;;;;16.40;47.50;99703.38;10522193;28;20234;-71
2022/11/07 20:22:51;;;;;;;8.00;4.93;;;;;;;15.45;49.11;99748.38;10523460;28;20234;-69
2022/11/07 20:27:53;;;;;;;10.53;5.10;;;;;;;13.97;51.90;99846.72;10518675;28;20230;-69
2022/11/07 20:32:54;;;;;;;8.93;5.30;;;;;;;15.00;50.08;99769.13;10521230;28;20238;-69
2022/11/07 20:37:56;;;;;;;8.97;4.73;;;;;;;14.50;50.54;99780.47;10522697;28;20218;-70
2022/11/07 20:43:00;;;;;;;10.27;4.93;;;;;;;14.63;50.64;99785.84;10522111;28;20296;-69
2022/11/07 20:48:02;;;;;;;19.33;5.20;;;;;;;11.72;55.81;99808.47;10517804;28;20251;-69
2022/11/07 20:53:04;;;;;;;12.30;6.73;;;;;;;14.33;51.14;99737.03;10525473;28;20234;-68
2022/11/07 20:58:05;;;;;;;10.70;5.00;;;;;;;14.74;50.22;99747.44;10516113;28;20234;-68
2022/11/07 21:03:13;;;;;;;9.83;5.30;;;;;;;12.45;54.54;99840.47;10520166;28;20256;-67
2022/11/07 21:08:15;;;;;;;8.33;5.00;;;;;;;12.92;54.31;99795.94;10519536;28;20238;-69
2022/11/07 21:13:18;;;;;;;6.47;3.80;;;;;;;11.97;55.96;99806.22;10520146;28;20233;-67
2022/11/07 21:18:20;;;;;;;7.90;4.40;;;;;;;11.98;55.96;99790.97;10519432;28;20242;-69
2022/11/07 21:23:25;;;;;;;6.07;4.13;;;;;;;12.53;54.28;99767.84;10520389;28;20268;-69
2022/11/07 21:28:27;;;;;;;7.20;4.33;;;;;;;12.45;54.47;99762.63;10516725;28;20287;-69
2022/11/07 21:33:29;;;;;;;9.20;4.70;;;;;;;12.52;54.29;99760.84;10516147;28;20238;-69
2022/11/07 21:38:31;;;;;;;8.93;4.93;;;;;;;12.35;54.36;99765.66;10518509;28;20300;-69
2022/11/07 21:43:33;;;;;;;5.40;3.90;;;;;;;12.03;55.38;99775.13;10519592;28;20230;-69
2022/11/07 21:48:35;;;;;;;8.33;3.90;;;;;;;13.00;52.92;99703.63;10518673;28;20242;-70
2022/11/07 21:53:37;;;;;;;6.03;3.73;;;;;;;12.65;53.84;99732.41;10520457;28;20231;-70
2022/11/07 21:58:40;;;;;;;7.87;3.97;;;;;;;12.27;54.32;99748.91;10499695;28;20394;-68
2022/11/07 22:03:41;;;;;;;7.67;3.83;;;;;;;13.63;51.36;99673.75;10517052;28;20234;-67
2022/11/07 22:09:05;;;;;;;6.07;3.80;;;;;;;12.14;53.64;99746.94;10519693;28;20325;-68
2022/11/07 22:14:06;;;;;;;4.73;3.40;;;;;;;14.19;50.55;99658.19;10516578;28;20230;-68
2022/11/07 22:19:08;;;;;;;5.37;3.87;;;;;;;15.29;47.64;99652.66;10518417;28;20226;-68
2022/11/07 22:24:13;;;;;;;9.83;4.10;;;;;;;15.47;47.11;99675.34;10521726;28;20238;-68
2022/11/07 22:29:15;;;;;;;12.77;4.87;;;;;;;15.16;47.86;99684.28;10517369;28;20231;-71
2022/11/07 22:34:16;;;;;;;7.03;4.37;;;;;;;13.45;50.40;99787.25;10518856;28;20230;-70
2022/11/07 22:39:18;;;;;;;8.27;4.00;;;;;;;14.04;49.21;99728.34;10519956;28;20233;-67
2022/11/07 22:44:19;;;;;;;6.70;4.73;;;;;;;14.30;50.03;99670.16;10513518;28;20235;-68
2022/11/07 22:49:21;;;;;;;7.77;5.10;;;;;;;14.14;49.61;99706.44;10517479;28;20246;-69
2022/11/07 22:54:23;;;;;;;7.13;5.07;;;;;;;13.09;51.32;99785.69;10510123;28;20231;-69
2022/11/07 22:59:24;;;;;;;8.67;4.73;;;;;;;13.64;50.24;99737.25;10516877;28;20234;-68
2022/11/07 23:04:26;;;;;;;7.73;4.27;;;;;;;12.44;53.04;99769.00;10513448;28;20287;-68
2022/11/07 23:09:33;;;;;;;8.30;3.80;;;;;;;12.25;53.21;99759.81;10517596;28;20241;-68
2022/11/07 23:14:34;;;;;;;6.50;3.67;;;;;;;12.68;52.39;99748.94;10512783;28;20238;-68
2022/11/07 23:19:36;;;;;;;7.77;4.20;;;;;;;13.03;51.70;99707.78;10516540;28;20276;-68
2022/11/07 23:24:38;;;;;;;6.80;4.23;;;;;;;14.10;50.21;99648.69;10525372;28;20417;-69
2022/11/07 23:29:39;;;;;;;8.07;4.67;;;;;;;14.60;48.19;99651.59;10520657;28;20233;-69
2022/11/07 23:34:41;;;;;;;7.50;4.13;;;;;;;14.58;47.80;99681.44;10525942;28;20249;-69
2022/11/07 23:39:43;;;;;;;9.10;4.43;;;;;;;13.89;49.01;99720.50;10522208;28;20230;-69
2022/11/07 23:55:41;;;;;;;7.90;4.40;;;;;;;14.43;48.37;99694.34;10516112;28;20242;-69
